createdAt,value
2016-10-31T00:03:12.553Z,44.6
2016-10-31T00:08:17.654Z,44.6
2016-10-31T00:13:21.753Z,44.6
2016-10-31T00:18:26.187Z,44.5
2016-10-31T00:23:30.280Z,44.5
2016-10-31T00:28:35.046Z,44.5
2016-10-31T00:33:39.136Z,44.5
2016-10-31T00:38:43.237Z,44.5
2016-10-31T00:43:47.864Z,44.4
2016-10-31T00:48:52.294Z,44.4
2016-10-31T00:53:57.061Z,44.4
2016-10-31T00:59:01.157Z,44.4
2016-10-31T01:04:05.261Z,44.4
2016-10-31T01:09:09.686Z,44.4
2016-10-31T01:14:14.118Z,44.4
2016-10-31T01:19:18.895Z,44.4
2016-10-31T01:24:23.328Z,44.4
2016-10-31T01:29:27.764Z,44.3
2016-10-31T01:34:32.191Z,44.4
2016-10-31T01:39:36.952Z,44.4
2016-10-31T01:44:41.058Z,44.4
2016-10-31T01:49:45.152Z,44.4
2016-10-31T01:54:49.587Z,44.4
2016-10-31T01:59:53.690Z,44.4
2016-10-31T02:04:57.781Z,44.4
2016-10-31T02:10:02.218Z,44.4
2016-10-31T02:15:06.642Z,44.4
2016-10-31T02:20:10.734Z,44.4
2016-10-31T02:25:15.161Z,44.4
2016-10-31T02:30:19.584Z,44.4
2016-10-31T02:35:23.686Z,44.4
2016-10-31T02:40:28.118Z,44.5
2016-10-31T02:45:32.552Z,44.5
2016-10-31T02:50:36.648Z,44.4
2016-10-31T02:55:41.078Z,44.5
2016-10-31T03:00:46.180Z,44.5
2016-10-31T03:05:50.939Z,44.4
2016-10-31T03:10:55.366Z,44.4
2016-10-31T03:15:59.798Z,44.4
2016-10-31T03:21:04.237Z,44.4
2016-10-31T03:26:08.668Z,44.4
2016-10-31T03:31:13.097Z,44.4
2016-10-31T03:36:17.193Z,44.5
2016-10-31T03:41:21.285Z,44.5
2016-10-31T03:46:26.059Z,44.4
2016-10-31T03:51:30.499Z,44.5
2016-10-31T03:56:35.598Z,44.4
2016-10-31T04:01:40.030Z,44.5
2016-10-31T04:06:44.132Z,44.5
2016-10-31T04:11:48.227Z,44.5
2016-10-31T04:16:52.992Z,44.5
2016-10-31T04:21:57.085Z,44.6
2016-10-31T04:27:01.183Z,44.6
2016-10-31T04:32:05.949Z,44.6
2016-10-31T04:37:10.721Z,44.6
2016-10-31T04:42:14.816Z,44.7
2016-10-31T04:47:19.584Z,44.7
2016-10-31T04:52:24.702Z,44.7
2016-10-31T04:57:28.800Z,44.8
2016-10-31T05:02:32.894Z,44.8
2016-10-31T05:07:37.325Z,44.8
2016-10-31T05:12:42.429Z,44.8
2016-10-31T05:17:46.863Z,44.8
2016-10-31T05:22:51.300Z,44.8
2016-10-31T05:27:55.670Z,44.8
2016-10-31T05:33:00.130Z,44.8
2016-10-31T05:38:04.910Z,45.1
2016-10-31T05:43:09.701Z,45.3
2016-10-31T05:48:13.796Z,45.5
2016-10-31T05:53:18.222Z,46.2
2016-10-31T05:58:22.322Z,46.6
2016-10-31T06:03:26.420Z,46.6
2016-10-31T06:08:30.854Z,46.8
2016-10-31T06:13:34.954Z,46.9
2016-10-31T06:18:39.767Z,47
2016-10-31T06:23:44.531Z,47
2016-10-31T06:28:48.971Z,46.9
2016-10-31T06:33:53.438Z,47
2016-10-31T06:38:57.530Z,47.2
2016-10-31T06:44:01.961Z,47.2
2016-10-31T06:49:06.394Z,47.2
2016-10-31T06:54:10.521Z,47.1
2016-10-31T06:59:14.616Z,47
2016-10-31T07:04:18.736Z,46.9
2016-10-31T07:09:23.162Z,46.8
2016-10-31T07:14:27.946Z,46.7
2016-10-31T07:19:32.391Z,46.6
2016-10-31T07:24:36.858Z,46.5
2016-10-31T07:29:40.952Z,46.4
2016-10-31T07:34:45.052Z,46.3
2016-10-31T07:39:49.481Z,46.3
2016-10-31T07:44:53.921Z,46.2
2016-10-31T07:49:58.017Z,46.2
2016-10-31T07:55:02.118Z,46.1
2016-10-31T08:00:06.550Z,46.1
2016-10-31T08:05:10.667Z,46.1
2016-10-31T08:10:15.203Z,46.1
2016-10-31T08:15:19.730Z,46.5
2016-10-31T08:20:24.504Z,46.2
2016-10-31T08:25:28.937Z,46.2
2016-10-31T08:30:33.373Z,46.2
2016-10-31T08:35:38.163Z,46.2
2016-10-31T08:40:42.257Z,46.7
2016-10-31T08:45:46.354Z,47.3
2016-10-31T08:50:50.458Z,47.2
2016-10-31T08:55:54.895Z,47.1
2016-10-31T09:00:59.356Z,47
2016-10-31T09:06:03.456Z,47.1
2016-10-31T09:11:07.919Z,47
2016-10-31T09:16:12.401Z,47
2016-10-31T09:21:17.067Z,46.9
2016-10-31T09:26:21.177Z,46.9
2016-10-31T09:31:25.612Z,46.9
2016-10-31T09:36:30.098Z,46.9
2016-10-31T09:41:35.567Z,47
2016-10-31T09:46:40.037Z,47
2016-10-31T09:51:44.143Z,47
2016-10-31T09:56:48.573Z,47
2016-10-31T10:01:53.376Z,47.1
2016-10-31T10:06:57.471Z,47.7
2016-10-31T10:12:01.908Z,47.8
2016-10-31T10:17:06.348Z,47.8
2016-10-31T10:22:11.121Z,48
2016-10-31T10:27:15.552Z,48.1
2016-10-31T10:32:19.990Z,47.9
2016-10-31T10:37:24.422Z,47.7
2016-10-31T10:42:29.525Z,47.5
2016-10-31T10:47:33.961Z,47.4
2016-10-31T10:52:38.402Z,47.3
2016-10-31T10:57:42.505Z,47.2
2016-10-31T11:02:46.608Z,47.2
2016-10-31T11:07:51.035Z,47.2
2016-10-31T11:12:55.131Z,47.1
2016-10-31T11:18:00.000Z,47.1
2016-10-31T11:23:04.439Z,47.1
2016-10-31T11:28:08.540Z,47.1
2016-10-31T11:33:12.975Z,47
2016-10-31T11:38:17.752Z,47
2016-10-31T11:43:22.528Z,47
2016-10-31T11:48:27.294Z,47
2016-10-31T11:53:31.737Z,47
2016-10-31T11:58:35.833Z,46.9
2016-10-31T12:03:40.611Z,46.9
2016-10-31T12:08:45.727Z,46.9
2016-10-31T12:13:50.187Z,47
2016-10-31T12:18:54.291Z,47
2016-10-31T12:23:58.397Z,47.1
2016-10-31T12:29:02.838Z,47.1
2016-10-31T12:34:07.274Z,47.2
2016-10-31T12:39:11.722Z,47.1
2016-10-31T12:44:15.824Z,47.1
2016-10-31T12:49:19.924Z,47.2
2016-10-31T12:54:25.040Z,47.2
2016-10-31T12:59:29.134Z,47.2
2016-10-31T13:04:33.911Z,47.2
2016-10-31T13:09:38.017Z,47.3
2016-10-31T13:14:42.122Z,47.4
2016-10-31T13:19:46.617Z,47.5
2016-10-31T13:24:51.058Z,47.4
2016-10-31T13:29:55.496Z,47.4
2016-10-31T13:34:59.929Z,47.4
2016-10-31T13:40:04.700Z,47.2
2016-10-31T13:45:09.471Z,47.1
2016-10-31T13:50:13.907Z,47.1
2016-10-31T13:55:18.011Z,47
2016-10-31T14:00:22.453Z,47
2016-10-31T14:05:26.893Z,47
2016-10-31T14:10:31.013Z,47
2016-10-31T14:15:35.447Z,47
2016-10-31T14:20:40.224Z,47.1
2016-10-31T14:25:44.699Z,47.1
2016-10-31T14:30:48.827Z,47.2
2016-10-31T14:35:52.924Z,47.2
2016-10-31T14:40:57.047Z,47.3
2016-10-31T14:46:02.155Z,47.4
2016-10-31T14:51:06.272Z,47.4
2016-10-31T14:56:10.979Z,47.4
2016-10-31T15:01:15.106Z,48
2016-10-31T15:06:20.556Z,48.3
2016-10-31T15:11:25.324Z,48.5
2016-10-31T15:16:29.437Z,48.5
2016-10-31T15:21:33.887Z,48.9
2016-10-31T15:26:38.326Z,49.4
2016-10-31T15:31:42.777Z,49.6
2016-10-31T15:36:47.214Z,49.5
2016-10-31T15:41:51.663Z,49.4
2016-10-31T15:46:55.763Z,49.3
2016-10-31T15:52:00.529Z,49.2
2016-10-31T15:57:04.960Z,49.1
2016-10-31T16:02:09.075Z,49
2016-10-31T16:07:13.181Z,49
2016-10-31T16:12:17.953Z,49
2016-10-31T16:17:22.381Z,49
2016-10-31T16:22:26.477Z,49
2016-10-31T16:27:30.918Z,49.1
2016-10-31T16:32:35.379Z,49.3
2016-10-31T16:37:39.842Z,49.2
2016-10-31T16:42:43.947Z,49.1
2016-10-31T16:47:48.383Z,49.1
2016-10-31T16:52:52.518Z,49
2016-10-31T16:57:56.673Z,48.9
2016-10-31T17:03:01.100Z,48.7
2016-10-31T17:08:05.545Z,48.8
2016-10-31T17:13:10.327Z,49
2016-10-31T17:18:14.770Z,49.5
2016-10-31T17:23:19.204Z,49.6
2016-10-31T17:28:24.134Z,49.5
2016-10-31T17:44:41.717Z,49.9
2016-10-31T17:49:46.227Z,50
2016-10-31T17:54:50.676Z,50
2016-10-31T17:59:54.779Z,49.9
2016-10-31T18:04:59.209Z,49.8
2016-10-31T18:10:03.640Z,49.6
2016-10-31T18:15:08.071Z,49.5
2016-10-31T18:20:12.181Z,49.3
2016-10-31T18:25:16.275Z,49.1
2016-10-31T18:30:20.689Z,49
2016-10-31T18:35:25.120Z,48.9
2016-10-31T18:40:29.905Z,48.9
2016-10-31T18:45:34.005Z,48.8
2016-10-31T18:50:38.204Z,48.6
2016-10-31T18:55:42.642Z,48.4
2016-10-31T19:00:46.734Z,48.3
2016-10-31T19:05:51.174Z,48.3
2016-10-31T19:10:55.277Z,48.1
2016-10-31T19:15:59.378Z,48
2016-10-31T19:21:03.815Z,47.8
2016-10-31T19:26:08.585Z,47.7
2016-10-31T19:31:12.698Z,47.6
2016-10-31T19:36:17.172Z,47.6
2016-10-31T19:41:21.966Z,47.7
2016-10-31T19:46:26.075Z,47.7
2016-10-31T19:51:30.193Z,47.7
2016-10-31T19:56:34.959Z,47.8
2016-10-31T20:01:39.397Z,47.8
2016-10-31T20:06:43.493Z,48.3
2016-10-31T20:11:47.594Z,48.7
2016-10-31T20:16:52.029Z,49
2016-10-31T20:21:56.828Z,49
2016-10-31T20:27:00.926Z,49.1
2016-10-31T20:32:05.135Z,49.2
2016-10-31T20:37:09.236Z,49
2016-10-31T20:42:13.335Z,49
2016-10-31T20:47:17.439Z,49
2016-10-31T20:52:21.885Z,49.1
2016-10-31T20:57:26.340Z,49.3
2016-10-31T21:02:30.449Z,49.4
2016-10-31T21:07:35.246Z,49.5
2016-10-31T21:12:39.473Z,49.6
2016-10-31T21:17:43.878Z,49.6
2016-10-31T21:22:48.447Z,49.8
2016-10-31T21:27:52.803Z,49.9
2016-10-31T21:32:57.265Z,49.9
2016-10-31T21:38:01.695Z,49.9
2016-10-31T21:43:05.797Z,49.8
2016-10-31T21:48:10.236Z,49.8
2016-10-31T21:53:14.351Z,49.7
2016-10-31T21:58:18.474Z,49.7
2016-10-31T22:03:23.250Z,49.5
2016-10-31T22:08:27.346Z,49.4
2016-10-31T22:13:31.783Z,49.3
2016-10-31T22:18:35.896Z,49.2
2016-10-31T22:23:40.333Z,49.2
2016-10-31T22:28:44.769Z,49.1
2016-10-31T22:33:49.545Z,49.1
2016-10-31T22:38:53.977Z,49
2016-10-31T22:43:58.075Z,49
2016-10-31T22:49:02.174Z,48.9
2016-10-31T22:54:06.272Z,48.9
2016-10-31T22:59:10.372Z,48.9
2016-10-31T23:04:14.474Z,48.8
2016-10-31T23:09:19.242Z,48.8
2016-10-31T23:14:23.347Z,48.8
2016-10-31T23:19:27.781Z,48.7
2016-10-31T23:24:32.221Z,48.7
2016-10-31T23:29:36.320Z,48.7
2016-10-31T23:34:40.760Z,48.6
2016-10-31T23:39:45.200Z,48.6
2016-10-31T23:44:49.301Z,48.6
2016-10-31T23:49:53.424Z,48.5
2016-10-31T23:54:57.531Z,48.5
